M I D A S
Marine Information and Data Acquisition System
Tripno 1996 of the Zeeleeuw from 2010-10-27 06:16:02 to 2010-10-27 14:40:10
Back to CruiseResearch ActivitiesStationsMapUnderway DataData graphs

EquipmentUnitsComments
TimeDGPSUTC
LatitudeDGPSDM.mWGS84
LongitudeDGPSDM.mWGS84
SpeedMeteo Stationm/sRelative wind speed
DirectionMeteo StationdegRelative wind direction
TemperatureMeteo Stationdeg CelciusAir temperature
PressureMeteo StationPaAtmospheric pressure
HumidityMeteo Station%Relative humidity
Missing or incorrect values are displayed as -999
Metereological data collected by the RV Zeeleeuw from 2010-10-27 06:10:07 to 2010-10-27 14:46:31
Time Latitude Longitude Speed Direction Temperature Pressure Humidity
2010-10-27 06:11 51°13.664 2°55.962 1.2 20 9.2 101980 43
2010-10-27 06:12 51°13.663 2°55.961 4.7 356 9.2 101980 44
2010-10-27 06:13 51°13.663 2°55.961 5.1 359 9.2 101980 45
2010-10-27 06:14 51°13.665 2°55.96 7.2 4 9.2 101980 44
2010-10-27 06:15 51°13.664 2°55.96 3.4 346 9.2 101980 42
2010-10-27 06:16 51°13.664 2°55.961 4.2 3 9.2 101980 43
2010-10-27 06:17 51°13.665 2°55.96 3.3 8 9.2 101980 42
2010-10-27 06:18 51°13.663 2°55.96 5 355 9.2 101980 42
2010-10-27 06:19 51°13.663 2°55.96 3.5 359 9.2 101980 42
2010-10-27 06:20 51°13.662 2°55.961 2 356 9.2 101980 43
2010-10-27 06:21 51°13.662 2°55.96 2.5 5 9.2 101980 42
2010-10-27 06:22 51°13.662 2°55.952 4.7 20 9.2 101980 42
2010-10-27 06:23 51°13.685 2°55.877 2.9 27 9.2 101980 42
2010-10-27 06:24 51°13.699 2°55.786 6.5 28 9.2 101980 43
2010-10-27 06:25 51°13.696 2°55.733 1.7 34 9.2 101980 42
2010-10-27 06:26 51°13.715 2°55.745 2.6 48 9.2 101980 42
2010-10-27 06:27 51°13.725 2°55.736 3 50 9.4 101980 43
2010-10-27 06:28 51°13.804 2°55.661 -999 54 9.4 101980 43
2010-10-27 06:29 51°13.924 2°55.567 1 309 9.4 101980 42
2010-10-27 06:30 51°14.073 2°55.462 -999 303 9.3 101980 43
2010-10-27 06:31 51°14.229 2°55.349 2.4 301 9.3 101980 45
2010-10-27 06:32 51°14.387 2°55.19 5.5 307 9.3 101980 45
2010-10-27 06:33 51°14.554 2°55.017 5.2 303 9.3 101980 44
2010-10-27 06:34 51°14.724 2°54.809 6.7 305 9.3 101980 43
2010-10-27 06:35 51°14.911 2°54.589 3.6 309 9.3 101990 42
2010-10-27 06:36 51°15.087 2°54.384 6.9 307 9.3 101970 42
2010-10-27 06:37 51°15.261 2°54.186 8.3 303 9.4 101970 42
2010-10-27 06:38 51°15.442 2°53.966 7.5 286 9.4 101980 43
2010-10-27 06:39 51°15.616 2°53.745 8.1 308 9.4 101980 43
2010-10-27 06:40 51°15.791 2°53.527 7.8 310 9.4 101980 43
2010-10-27 06:41 51°15.98 2°53.339 7.3 309 9.4 101990 42
2010-10-27 06:42 51°16.174 2°53.166 7.1 303 9.4 101990 43
2010-10-27 06:43 51°16.376 2°53.013 5.8 283 9.4 101980 45
2010-10-27 06:44 51°16.579 2°52.862 6.6 311 9.4 101960 45
2010-10-27 06:45 51°16.78 2°52.712 5.4 286 9.4 101970 42
2010-10-27 06:46 51°16.98 2°52.559 5.1 284 9.4 101970 45
2010-10-27 06:47 51°17.182 2°52.406 3.6 280 9.5 101960 42
2010-10-27 06:48 51°17.383 2°52.252 5.1 285 9.5 101960 44
2010-10-27 06:49 51°17.583 2°52.093 6.1 307 9.6 101960 45
2010-10-27 06:50 51°17.781 2°51.937 3.8 310 9.7 101960 43
2010-10-27 06:51 51°17.982 2°51.784 6.3 303 9.8 101950 44
2010-10-27 06:52 51°18.183 2°51.629 5.9 304 9.9 101940 44
2010-10-27 06:53 51°18.383 2°51.473 5.3 308 9.9 101940 45
2010-10-27 06:54 51°18.584 2°51.315 4.2 304 9.9 101950 42
2010-10-27 06:55 51°18.786 2°51.156 7.2 302 9.9 101940 44
2010-10-27 06:56 51°18.983 2°50.996 3.7 310 9.9 101940 45
2010-10-27 06:57 51°19.184 2°50.836 4 303 9.9 101930 42
2010-10-27 06:58 51°19.383 2°50.679 3.9 303 9.9 101940 43
2010-10-27 06:59 51°19.584 2°50.522 4.6 308 9.9 101930 42
2010-10-27 07:00 51°19.786 2°50.357 5.3 310 9.9 101930 45
2010-10-27 07:01 51°19.987 2°50.196 7.7 305 10 101930 45
2010-10-27 07:02 51°20.187 2°50.033 5.5 309 10.1 101910 44
2010-10-27 07:03 51°20.388 2°49.872 8.8 285 10.1 101920 44
2010-10-27 07:04 51°20.584 2°49.701 10.8 308 10.1 101910 45
2010-10-27 07:05 51°20.679 2°49.391 13.1 284 10.1 101890 44
2010-10-27 07:06 51°20.757 2°49.056 12.3 307 10.2 101880 43
2010-10-27 07:07 51°20.842 2°48.724 11.7 309 10.2 101870 44
2010-10-27 07:08 51°20.985 2°48.45 11.8 311 10.3 101900 43
2010-10-27 07:09 51°21.148 2°48.203 9.5 286 10.2 101900 45
2010-10-27 07:10 51°21.31 2°47.952 10.4 283 10.2 101890 42
2010-10-27 07:11 51°21.469 2°47.698 9 308 10.3 101900 45
2010-10-27 07:12 51°21.622 2°47.438 10.2 281 10.3 101890 45
2010-10-27 07:13 51°21.767 2°47.165 9.9 305 10.4 101900 43
2010-10-27 07:14 51°21.909 2°46.888 12.1 285 10.4 101890 45
2010-10-27 07:15 51°22.055 2°46.616 13.2 303 10.5 101890 44
2010-10-27 07:16 51°22.198 2°46.339 10.8 281 10.5 101890 44
2010-10-27 07:17 51°22.343 2°46.063 11.8 311 10.4 101890 44
2010-10-27 07:18 51°22.503 2°45.813 10.7 281 10.4 101900 44
2010-10-27 07:19 51°22.678 2°45.591 10.6 303 10.5 101900 44
2010-10-27 07:20 51°22.863 2°45.388 8.4 284 10.5 101890 45
2010-10-27 07:21 51°23.051 2°45.194 9.6 308 10.5 101900 44
2010-10-27 07:22 51°23.235 2°44.994 11.6 283 10.5 101940 44
2010-10-27 07:23 51°23.42 2°44.799 5.5 309 10.5 101910 44
2010-10-27 07:24 51°23.615 2°44.622 7 278 10.5 101900 44
2010-10-27 07:25 51°23.807 2°44.433 12.1 306 10.6 101900 43
2010-10-27 07:26 51°23.994 2°44.241 9.6 286 10.5 101900 42
2010-10-27 07:27 51°24.184 2°44.057 6.2 308 10.5 101890 45
2010-10-27 07:28 51°24.368 2°43.918 6 284 10.5 101910 44
2010-10-27 07:29 51°24.508 2°43.806 7.3 307 10.6 101910 45
2010-10-27 07:30 51°24.571 2°43.726 9.8 278 10.5 101900 45
2010-10-27 07:31 51°24.631 2°43.696 9.1 54 10.6 101910 45
2010-10-27 07:32 51°24.674 2°43.701 10.8 82 10.7 101920 43
2010-10-27 07:33 51°24.678 2°43.707 10.3 54 10.6 101910 44
2010-10-27 07:34 51°24.676 2°43.711 8.4 75 10.6 101920 42
2010-10-27 07:35 51°24.687 2°43.711 4.5 54 10.6 101930 43
2010-10-27 07:36 51°24.698 2°43.711 9.2 80 10.6 101930 44
2010-10-27 07:37 51°24.712 2°43.709 10 55 10.6 101930 45
2010-10-27 07:38 51°24.732 2°43.701 11.2 73 10.6 101940 43
2010-10-27 07:39 51°24.777 2°43.672 8.3 55 10.5 101910 44
2010-10-27 07:40 51°24.83 2°43.75 11.7 18 10.5 101900 45
2010-10-27 07:41 51°24.792 2°43.824 13.5 341 10.6 101900 44
2010-10-27 07:42 51°24.739 2°43.802 12.4 286 10.6 101920 43
2010-10-27 07:43 51°24.715 2°43.766 11.5 304 10.6 101910 44
2010-10-27 07:44 51°24.695 2°43.738 10.1 279 10.6 101910 45
2010-10-27 07:45 51°24.678 2°43.734 10.6 333 10.7 101910 45
2010-10-27 07:46 51°24.67 2°43.726 10.7 286 10.7 101910 43
2010-10-27 07:47 51°24.664 2°43.713 10.7 329 10.7 101910 45
2010-10-27 07:48 51°24.678 2°43.711 10.6 284 10.7 101900 44
2010-10-27 07:49 51°24.698 2°43.722 10.5 303 10.7 101930 44
2010-10-27 07:50 51°24.711 2°43.737 9.3 281 10.7 101960 43
2010-10-27 07:51 51°24.714 2°43.755 12.7 56 10.7 101950 43
2010-10-27 07:52 51°24.731 2°43.715 12.2 279 10.7 101930 45
2010-10-27 07:53 51°24.746 2°43.703 10 310 10.8 101930 43
2010-10-27 07:54 51°24.73 2°43.617 10.5 285 10.8 101880 44
2010-10-27 07:55 51°24.687 2°43.629 10.5 9 10.9 101880 45
2010-10-27 07:56 51°24.662 2°43.676 12.8 355 10.8 101890 44
2010-10-27 07:57 51°24.664 2°43.686 11.3 6 10.7 101890 43
2010-10-27 07:58 51°24.668 2°43.701 11.4 14 10.7 101920 42
2010-10-27 07:59 51°24.673 2°43.709 12.3 8 10.8 101910 43
2010-10-27 08:00 51°24.686 2°43.711 12 19 10.7 101930 43
2010-10-27 08:01 51°24.698 2°43.71 12.5 20 10.8 101930 44
2010-10-27 08:02 51°24.71 2°43.713 9.7 19 10.8 101940 43
2010-10-27 08:03 51°24.705 2°43.742 11.2 351 10.7 101900 44
2010-10-27 08:04 51°24.657 2°43.751 12.5 287 10.7 101900 44
2010-10-27 08:05 51°24.654 2°43.742 10.5 324 10.7 101900 44
2010-10-27 08:06 51°24.658 2°43.729 10.1 284 10.7 101890 43
2010-10-27 08:07 51°24.667 2°43.713 10.6 308 10.8 101890 44
2010-10-27 08:08 51°24.681 2°43.715 9.5 283 10.8 101910 44
2010-10-27 08:09 51°24.689 2°43.72 8.9 307 10.9 101940 45
2010-10-27 08:10 51°24.697 2°43.724 9.7 287 10.8 101940 44
2010-10-27 08:11 51°24.705 2°43.727 8.8 309 10.8 101950 43
2010-10-27 08:12 51°24.714 2°43.724 7.8 284 10.9 101940 45
2010-10-27 08:13 51°24.725 2°43.715 10.5 304 10.9 101930 43
2010-10-27 08:14 51°24.732 2°43.637 12.5 280 10.9 101890 44
2010-10-27 08:15 51°24.687 2°43.589 12.6 353 10.9 101890 43
2010-10-27 08:16 51°24.634 2°43.647 11.6 357 10.8 101870 44
2010-10-27 08:17 51°24.629 2°43.658 9.2 358 10.8 101890 44
2010-10-27 08:18 51°24.635 2°43.663 10 19 10.9 101900 44
2010-10-27 08:19 51°24.64 2°43.672 8.1 20 10.9 101910 45
2010-10-27 08:20 51°24.645 2°43.679 11.6 18 10.9 101910 44
2010-10-27 08:21 51°24.648 2°43.684 12 12 10.9 101910 44
2010-10-27 08:22 51°24.651 2°43.69 8.1 12 10.8 101920 45
2010-10-27 08:23 51°24.655 2°43.692 9.2 13 10.9 101930 44
2010-10-27 08:24 51°24.658 2°43.699 12.9 9 11 101920 44
2010-10-27 08:25 51°24.66 2°43.705 12 16 10.9 101910 44
2010-10-27 08:26 51°24.666 2°43.706 11.3 11 10.9 101910 44
2010-10-27 08:27 51°24.673 2°43.707 11.1 20 10.9 101930 44
2010-10-27 08:28 51°24.68 2°43.707 12.4 20 11 101930 43
2010-10-27 08:29 51°24.687 2°43.705 10.2 18 10.9 101930 44
2010-10-27 08:30 51°24.694 2°43.704 9.5 18 10.9 101930 44
2010-10-27 08:31 51°24.7 2°43.704 10.9 17 11 101910 44
2010-10-27 08:32 51°24.705 2°43.714 11.2 20 10.9 101890 44
2010-10-27 08:33 51°24.707 2°43.765 8.4 35 11 101890 44
2010-10-27 08:34 51°24.775 2°43.849 5 82 11 101920 45
2010-10-27 08:35 51°24.919 2°44.01 6.4 41 11 101920 45
2010-10-27 08:36 51°25.083 2°44.205 5.2 43 11 101920 45
2010-10-27 08:37 51°25.254 2°44.4 6.9 43 10.9 101910 43
2010-10-27 08:38 51°25.423 2°44.584 4.8 41 10.9 101910 44
2010-10-27 08:39 51°25.589 2°44.783 5 36 11 101910 45
2010-10-27 08:40 51°25.753 2°44.984 6.3 42 10.9 101900 43
2010-10-27 08:41 51°25.919 2°45.187 4.1 35 11 101900 46
2010-10-27 08:42 51°26.072 2°45.413 5.3 39 11 101900 45
2010-10-27 08:43 51°26.221 2°45.64 8.5 35 11.1 101900 44
2010-10-27 08:44 51°26.372 2°45.86 4.4 36 11.1 101890 44
2010-10-27 08:45 51°26.529 2°46.058 6.5 39 11.1 101900 45
2010-10-27 08:46 51°26.679 2°46.273 7.6 42 11.2 101890 46
2010-10-27 08:47 51°26.83 2°46.479 6.5 31 11.2 101900 43
2010-10-27 08:48 51°26.981 2°46.691 8.4 57 11.2 101890 43
2010-10-27 08:49 51°27.136 2°46.902 5.8 33 11.2 101890 44
2010-10-27 08:50 51°27.289 2°47.117 8.3 45 11.2 101890 43
2010-10-27 08:51 51°27.436 2°47.335 5.5 73 11.1 101900 44
2010-10-27 08:52 51°27.59 2°47.532 6.1 57 11.1 101900 43
2010-10-27 08:53 51°27.747 2°47.728 3.8 42 11.1 101900 45
2010-10-27 08:54 51°27.903 2°47.927 5.9 43 11.2 101910 43
2010-10-27 08:55 51°28.059 2°48.13 3.8 32 11.3 101910 43
2010-10-27 08:56 51°28.214 2°48.34 5 36 11.4 101900 43
2010-10-27 08:57 51°28.364 2°48.553 3.6 38 11.3 101900 45
2010-10-27 08:58 51°28.514 2°48.764 3.8 56 11.3 101900 46
2010-10-27 08:59 51°28.669 2°48.969 5 82 11.2 101910 45
2010-10-27 09:00 51°28.825 2°49.169 5.8 41 11.1 101900 43
2010-10-27 09:01 51°28.985 2°49.373 4.7 41 11.1 101900 43
2010-10-27 09:02 51°29.14 2°49.566 5.8 40 11 101900 45
2010-10-27 09:03 51°29.294 2°49.768 6.3 44 11 101900 43
2010-10-27 09:04 51°29.44 2°49.983 6.1 34 11 101890 46
2010-10-27 09:05 51°29.593 2°50.198 7.3 32 11 101890 43
2010-10-27 09:06 51°29.635 2°50.497 16.3 10 11.1 101870 43
2010-10-27 09:07 51°29.553 2°50.795 10.7 5 11.1 101840 45
2010-10-27 09:08 51°29.455 2°51.083 14.5 8 11.1 101840 44
2010-10-27 09:09 51°29.352 2°51.363 11.4 4 11.1 101840 44
2010-10-27 09:10 51°29.243 2°51.642 11.4 6 11.2 101840 44
2010-10-27 09:11 51°29.135 2°51.921 10.5 3 11.1 101840 44
2010-10-27 09:12 51°29.021 2°52.197 10.2 3 11.2 101830 44
2010-10-27 09:13 51°28.915 2°52.476 12.7 7 11.2 101840 44
2010-10-27 09:14 51°28.804 2°52.753 11.8 2 11.2 101830 45
2010-10-27 09:15 51°28.687 2°53.024 13.9 1 11.2 101830 44
2010-10-27 09:16 51°28.572 2°53.299 12.8 357 11.2 101820 43
2010-10-27 09:17 51°28.455 2°53.557 9.1 4 11.1 101830 43
2010-10-27 09:18 51°28.388 2°53.677 9.5 4 11 101840 44
2010-10-27 09:19 51°28.353 2°53.72 7.7 5 11 101850 43
2010-10-27 09:20 51°28.332 2°53.737 11.6 8 11 101860 44
2010-10-27 09:21 51°28.319 2°53.743 10.4 7 11 101860 45
2010-10-27 09:22 51°28.314 2°53.745 10.9 13 11 101860 44
2010-10-27 09:23 51°28.311 2°53.743 12.4 14 11 101880 43
2010-10-27 09:24 51°28.31 2°53.74 10.8 21 11.1 101860 43
2010-10-27 09:25 51°28.308 2°53.738 12.8 19 11.2 101850 43
2010-10-27 09:26 51°28.308 2°53.733 11.9 23 11.2 101860 44
2010-10-27 09:27 51°28.306 2°53.731 9.6 18 11.2 101850 43
2010-10-27 09:28 51°28.304 2°53.726 11.6 22 11.3 101860 45
2010-10-27 09:29 51°28.302 2°53.726 11.4 21 11.2 101860 44
2010-10-27 09:30 51°28.299 2°53.725 13 12 11.3 101860 44
2010-10-27 09:31 51°28.297 2°53.722 10.8 23 11.3 101850 45
2010-10-27 09:32 51°28.294 2°53.72 11.2 18 11.3 101860 44
2010-10-27 09:33 51°28.291 2°53.718 10.1 19 11.3 101860 45
2010-10-27 09:34 51°28.287 2°53.716 12.5 15 11.3 101860 45
2010-10-27 09:35 51°28.284 2°53.712 10.8 19 11.3 101850 43
2010-10-27 09:36 51°28.282 2°53.708 14.7 26 11.3 101850 45
2010-10-27 09:37 51°28.279 2°53.705 10.8 25 11.3 101860 43
2010-10-27 09:38 51°28.276 2°53.703 9.7 22 11.3 101860 45
2010-10-27 09:39 51°28.27 2°53.7 9 18 11.4 101870 43
2010-10-27 09:40 51°28.266 2°53.701 13.4 19 11.3 101860 44
2010-10-27 09:41 51°28.249 2°53.742 11.7 24 11.3 101860 45
2010-10-27 09:42 51°28.256 2°53.826 9.3 53 11.2 101880 43
2010-10-27 09:43 51°28.319 2°53.854 6.2 78 11.2 101890 44
2010-10-27 09:44 51°28.441 2°53.798 4.4 311 11.2 101880 44
2010-10-27 09:45 51°28.615 2°53.712 6.7 285 11.3 101890 45
2010-10-27 09:46 51°28.806 2°53.629 5.5 305 11.3 101900 45
2010-10-27 09:47 51°28.996 2°53.538 4.9 79 11.3 101880 44
2010-10-27 09:48 51°29.191 2°53.445 7.9 304 11.3 101890 43
2010-10-27 09:49 51°29.377 2°53.331 6.4 -999 11.3 101890 44
2010-10-27 09:50 51°29.57 2°53.273 6.1 54 11.3 101880 43
2010-10-27 09:51 51°29.764 2°53.243 3.6 -999 11.3 101870 43
2010-10-27 09:52 51°29.961 2°53.213 7.4 51 11.3 101880 43
2010-10-27 09:53 51°30.159 2°53.178 6.9 77 11.3 101880 43
2010-10-27 09:54 51°30.359 2°53.142 6.7 76 11.4 101870 46
2010-10-27 09:55 51°30.56 2°53.126 4.7 287 11.4 101870 43
2010-10-27 09:56 51°30.757 2°53.097 8.2 78 11.4 101870 45
2010-10-27 09:57 51°30.944 2°53.056 8.6 -999 11.5 101880 44
2010-10-27 09:58 51°31.084 2°52.95 8.2 285 11.5 101860 46
2010-10-27 09:59 51°31.168 2°52.848 8.7 284 11.5 101850 43
2010-10-27 10:00 51°31.219 2°52.736 11.9 279 11.6 101840 45
2010-10-27 10:01 51°31.223 2°52.6 12.1 278 11.6 101820 43
2010-10-27 10:02 51°31.231 2°52.501 12.9 309 11.6 101820 44
2010-10-27 10:03 51°31.229 2°52.493 8.6 285 11.6 101820 43
2010-10-27 10:04 51°31.219 2°52.496 12.5 309 11.7 101840 44
2010-10-27 10:05 51°31.212 2°52.496 12.1 278 11.6 101830 43
2010-10-27 10:06 51°31.209 2°52.489 7.7 306 11.7 101840 45
2010-10-27 10:07 51°31.207 2°52.479 8.6 278 11.7 101840 43
2010-10-27 10:08 51°31.206 2°52.472 9.1 304 11.6 101840 44
2010-10-27 10:09 51°31.205 2°52.466 7.3 284 11.7 101850 44
2010-10-27 10:10 51°31.203 2°52.464 11.8 285 11.7 101840 44
2010-10-27 10:11 51°31.203 2°52.46 8.9 285 11.7 101850 43
2010-10-27 10:12 51°31.204 2°52.45 8.5 285 11.6 101840 44
2010-10-27 10:13 51°31.206 2°52.441 10.4 305 11.6 101850 44
2010-10-27 10:14 51°31.211 2°52.433 9.1 286 11.7 101900 43
2010-10-27 10:15 51°31.216 2°52.425 9.3 82 11.7 101880 44
2010-10-27 10:16 51°31.222 2°52.422 10.7 78 11.6 101890 45
2010-10-27 10:17 51°31.228 2°52.42 13 59 11.7 101880 43
2010-10-27 10:18 51°31.236 2°52.421 11.4 82 11.6 101880 44
2010-10-27 10:19 51°31.243 2°52.425 9.2 76 11.6 101860 43
2010-10-27 10:20 51°31.249 2°52.431 8.6 77 11.6 101870 43
2010-10-27 10:21 51°31.255 2°52.443 12.1 44 11.6 101870 45
2010-10-27 10:22 51°31.255 2°52.457 9.3 32 11.6 101840 44
2010-10-27 10:23 51°31.251 2°52.466 11.3 30 11.6 101840 45
2010-10-27 10:24 51°31.243 2°52.47 10.6 26 11.6 101840 44
2010-10-27 10:25 51°31.234 2°52.47 10.8 16 11.6 101830 44
2010-10-27 10:26 51°31.229 2°52.465 10.1 19 11.7 101830 45
2010-10-27 10:27 51°31.227 2°52.458 10.3 18 11.7 101850 44
2010-10-27 10:28 51°31.225 2°52.449 9.2 -999 11.6 101840 45
2010-10-27 10:29 51°31.223 2°52.448 10.6 29 11.5 101840 43
2010-10-27 10:30 51°31.218 2°52.453 10.1 23 11.5 101840 44
2010-10-27 10:31 51°31.212 2°52.457 12.6 20 11.5 101830 44
2010-10-27 10:32 51°31.208 2°52.458 10.8 -999 11.5 101820 45
2010-10-27 10:33 51°31.205 2°52.458 9.8 27 11.5 101830 44
2010-10-27 10:34 51°31.203 2°52.459 9.2 -999 11.6 101850 44
2010-10-27 10:35 51°31.201 2°52.461 11.6 25 11.6 101850 44
2010-10-27 10:36 51°31.2 2°52.469 12.3 30 11.5 101830 43
2010-10-27 10:37 51°31.199 2°52.476 12.4 -999 11.6 101830 45
2010-10-27 10:38 51°31.199 2°52.481 12.5 26 11.6 101840 44
2010-10-27 10:39 51°31.198 2°52.484 11.3 27 11.5 101840 44
2010-10-27 10:40 51°31.199 2°52.483 11.9 28 11.5 101830 44
2010-10-27 10:41 51°31.198 2°52.48 13.4 26 11.6 101830 44
2010-10-27 10:42 51°31.198 2°52.479 10.8 30 11.6 101830 44
2010-10-27 10:43 51°31.197 2°52.476 11.9 28 11.7 101830 44
2010-10-27 10:44 51°31.197 2°52.476 9.7 29 11.6 101810 45
2010-10-27 10:45 51°31.198 2°52.477 11.4 23 11.6 101820 45
2010-10-27 10:46 51°31.197 2°52.477 13.2 30 11.6 101810 44
2010-10-27 10:47 51°31.198 2°52.475 12.9 25 11.6 101810 43
2010-10-27 10:48 51°31.199 2°52.477 12.5 23 11.6 101810 44
2010-10-27 10:49 51°31.2 2°52.475 12.9 21 11.5 101810 44
2010-10-27 10:50 51°31.2 2°52.471 12.1 27 11.6 101810 44
2010-10-27 10:51 51°31.199 2°52.471 13.3 26 11.6 101820 43
2010-10-27 10:52 51°31.199 2°52.469 12.4 25 11.6 101810 45
2010-10-27 10:53 51°31.198 2°52.47 11 25 11.6 101820 45
2010-10-27 10:54 51°31.197 2°52.472 11.1 28 11.6 101820 45
2010-10-27 10:55 51°31.198 2°52.478 11.2 27 11.7 101820 45
2010-10-27 10:56 51°31.198 2°52.48 12 25 11.6 101810 45
2010-10-27 10:57 51°31.198 2°52.48 9.7 30 11.6 101800 44
2010-10-27 10:58 51°31.199 2°52.479 9.9 29 11.6 101810 45
2010-10-27 10:59 51°31.198 2°52.479 11.5 28 11.7 101810 45
2010-10-27 11:00 51°31.198 2°52.48 12 24 11.7 101810 44
2010-10-27 11:01 51°31.199 2°52.48 11.3 24 11.7 101800 44
2010-10-27 11:02 51°31.198 2°52.479 9.6 28 11.7 101810 45
2010-10-27 11:03 51°31.198 2°52.478 10.3 30 11.7 101800 43
2010-10-27 11:04 51°31.198 2°52.477 10 27 11.8 101800 46
2010-10-27 11:05 51°31.198 2°52.477 9.4 28 11.8 101810 44
2010-10-27 11:06 51°31.197 2°52.479 8.4 31 11.8 101800 45
2010-10-27 11:07 51°31.198 2°52.479 11.8 26 11.8 101800 45
2010-10-27 11:08 51°31.198 2°52.48 10.8 28 11.7 101800 45
2010-10-27 11:09 51°31.198 2°52.479 10 31 11.7 101800 45
2010-10-27 11:10 51°31.198 2°52.481 10.9 26 11.7 101810 46
2010-10-27 11:11 51°31.199 2°52.483 10 27 11.7 101810 45
2010-10-27 11:12 51°31.199 2°52.482 11.1 27 11.7 101850 44
2010-10-27 11:13 51°31.198 2°52.481 11.6 32 11.7 101820 44
2010-10-27 11:14 51°31.198 2°52.48 9 29 11.7 101820 44
2010-10-27 11:15 51°31.198 2°52.48 9.2 29 11.7 101810 45
2010-10-27 11:16 51°31.198 2°52.482 9.5 31 11.8 101820 46
2010-10-27 11:17 51°31.199 2°52.486 11.7 32 11.8 101810 43
2010-10-27 11:18 51°31.2 2°52.486 11.5 27 11.8 101810 45
2010-10-27 11:19 51°31.2 2°52.484 11.7 31 11.8 101870 45
2010-10-27 11:20 51°31.2 2°52.485 10.6 29 11.9 101840 44
2010-10-27 11:21 51°31.2 2°52.482 12.2 29 11.9 101810 44
2010-10-27 11:22 51°31.2 2°52.483 11.4 26 11.8 101810 45
2010-10-27 11:23 51°31.2 2°52.484 9.1 29 11.9 101810 44
2010-10-27 11:24 51°31.201 2°52.482 10.3 31 11.9 101820 44
2010-10-27 11:25 51°31.203 2°52.469 12.3 36 11.8 101810 44
2010-10-27 11:26 51°31.207 2°52.464 11.2 39 11.8 101820 44
2010-10-27 11:27 51°31.211 2°52.474 10.2 33 11.9 101820 45
2010-10-27 11:28 51°31.213 2°52.489 10.1 34 11.9 101820 44
2010-10-27 11:29 51°31.211 2°52.504 10.3 24 11.9 101820 45
2010-10-27 11:30 51°31.204 2°52.512 12.6 16 11.9 101810 44
2010-10-27 11:31 51°31.198 2°52.52 9.5 21 11.9 101800 43
2010-10-27 11:32 51°31.186 2°52.55 10.1 28 12 101810 45
2010-10-27 11:33 51°31.192 2°52.629 8.7 42 11.9 101820 43
2010-10-27 11:34 51°31.263 2°52.754 4.7 76 11.9 101830 43
2010-10-27 11:35 51°31.405 2°52.899 5.4 56 12 101840 44
2010-10-27 11:36 51°31.513 2°53.16 6.3 27 11.9 101830 45
2010-10-27 11:37 51°31.62 2°53.43 4.3 35 11.9 101830 43
2010-10-27 11:38 51°31.73 2°53.696 7.2 39 11.9 101830 46
2010-10-27 11:39 51°31.85 2°53.962 6 29 11.9 101830 45
2010-10-27 11:40 51°31.96 2°54.236 7 35 11.9 101830 45
2010-10-27 11:41 51°32.074 2°54.498 5.1 35 11.9 101820 46
2010-10-27 11:42 51°32.201 2°54.739 5.3 42 11.9 101820 44
2010-10-27 11:43 51°32.363 2°54.919 3.8 52 11.8 101840 43
2010-10-27 11:44 51°32.492 2°55.056 9.5 45 12 101840 47
2010-10-27 11:45 51°32.51 2°55.159 9.1 30 11.9 101800 45
2010-10-27 11:46 51°32.498 2°55.215 11 17 11.9 101810 45
2010-10-27 11:47 51°32.485 2°55.245 11.2 17 11.9 101800 43
2010-10-27 11:48 51°32.473 2°55.263 11.1 14 11.8 101800 45
2010-10-27 11:49 51°32.465 2°55.281 11.5 18 11.9 101800 45
2010-10-27 11:50 51°32.46 2°55.358 9.2 43 11.8 101800 45
2010-10-27 11:51 51°32.514 2°55.4 9 73 11.8 101830 45
2010-10-27 11:52 51°32.6 2°55.423 6.5 75 11.9 101820 46
2010-10-27 11:53 51°32.662 2°55.472 9.4 42 11.9 101830 45
2010-10-27 11:54 51°32.669 2°55.539 11.7 27 11.8 101790 44
2010-10-27 11:55 51°32.662 2°55.579 10.5 25 11.8 101780 45
2010-10-27 11:56 51°32.651 2°55.605 12.2 15 11.8 101780 45
2010-10-27 11:57 51°32.644 2°55.623 12 13 11.7 101760 45
2010-10-27 11:58 51°32.639 2°55.639 12.7 10 11.8 101780 44
2010-10-27 11:59 51°32.613 2°55.679 12.4 354 11.8 101780 44
2010-10-27 12:00 51°32.566 2°55.697 10.9 287 11.7 101770 44
2010-10-27 12:01 51°32.533 2°55.633 11.5 304 11.8 101780 45
2010-10-27 12:02 51°32.592 2°55.507 13.5 283 11.8 101790 43
2010-10-27 12:03 51°32.731 2°55.285 9.9 302 11.8 101780 44
2010-10-27 12:04 51°32.909 2°55.125 9.8 280 11.8 101800 46
2010-10-27 12:05 51°33.094 2°55.13 4.5 78 11.8 101820 42
2010-10-27 12:06 51°33.203 2°55.39 8.7 17 11.9 101810 45
2010-10-27 12:07 51°33.146 2°55.659 11.8 9 11.9 101770 45
2010-10-27 12:08 51°33.092 2°55.781 11.1 13 11.8 101770 45
2010-10-27 12:09 51°33.061 2°55.849 10.7 15 11.8 101770 43
2010-10-27 12:10 51°33.042 2°55.892 9.4 11 11.8 101780 45
2010-10-27 12:11 51°33.029 2°55.92 10.7 7 11.8 101790 43
2010-10-27 12:12 51°33.022 2°55.943 10.5 12 11.8 101780 45
2010-10-27 12:13 51°33.019 2°55.963 10.5 13 11.8 101770 45
2010-10-27 12:14 51°33.015 2°55.985 10.4 16 11.8 101790 44
2010-10-27 12:15 51°33.012 2°56.004 11.5 17 11.8 101780 44
2010-10-27 12:16 51°33.011 2°56.026 11 18 11.8 101780 44
2010-10-27 12:17 51°33.006 2°56.049 10.5 17 11.8 101770 44
2010-10-27 12:18 51°33.004 2°56.07 11.1 15 11.7 101770 44
2010-10-27 12:19 51°33.004 2°56.089 12.6 20 11.8 101770 44
2010-10-27 12:20 51°33.005 2°56.108 10.5 16 11.7 101780 43
2010-10-27 12:21 51°33.006 2°56.125 10.2 21 11.8 101780 44
2010-10-27 12:22 51°33.005 2°56.147 9.2 18 11.7 101770 45
2010-10-27 12:23 51°33.003 2°56.169 9.1 16 11.8 101780 46
2010-10-27 12:24 51°33.002 2°56.192 10.8 13 11.8 101770 44
2010-10-27 12:25 51°33.002 2°56.211 12.4 18 11.8 101780 45
2010-10-27 12:26 51°33.004 2°56.232 10.9 19 11.8 101780 46
2010-10-27 12:27 51°33.006 2°56.252 9 22 11.7 101770 44
2010-10-27 12:28 51°33.012 2°56.263 8.8 20 11.8 101780 45
2010-10-27 12:29 51°33.021 2°56.254 10 30 11.8 101790 45
2010-10-27 12:30 51°33.027 2°56.246 11.5 31 11.8 101770 45
2010-10-27 12:31 51°33.032 2°56.23 12.1 38 11.8 101780 46
2010-10-27 12:32 51°33.039 2°56.247 8.9 43 11.8 101780 45
2010-10-27 12:33 51°33.086 2°56.284 9.2 308 11.8 101800 46
2010-10-27 12:34 51°33.151 2°56.22 9.5 286 11.9 101840 44
2010-10-27 12:35 51°33.192 2°56.106 13.9 306 11.9 101760 45
2010-10-27 12:36 51°33.206 2°55.997 12.6 307 11.8 101770 44
2010-10-27 12:37 51°33.183 2°55.932 13 320 11.9 101770 45
2010-10-27 12:38 51°33.145 2°55.868 11.2 309 11.8 101760 44
2010-10-27 12:39 51°33.085 2°55.855 12.8 285 11.9 101780 45
2010-10-27 12:40 51°33.023 2°55.895 10.8 355 11.8 101750 43
2010-10-27 12:41 51°33.022 2°55.926 11.5 10 11.9 101770 44
2010-10-27 12:42 51°33.029 2°55.947 13.4 27 11.9 101780 44
2010-10-27 12:43 51°33.037 2°55.962 11.6 32 11.8 101770 44
2010-10-27 12:44 51°33.046 2°55.985 10.2 29 11.8 101770 45
2010-10-27 12:45 51°33.052 2°56.012 11.4 23 11.9 101780 45
2010-10-27 12:46 51°33.057 2°56.04 11 24 11.9 101770 44
2010-10-27 12:47 51°33.059 2°56.082 8.7 20 12 101770 44
2010-10-27 12:48 51°33.059 2°56.122 10.3 12 12 101770 45
2010-10-27 12:49 51°33.063 2°56.158 9.9 15 11.9 101770 44
2010-10-27 12:50 51°33.068 2°56.194 11 14 11.8 101760 45
2010-10-27 12:51 51°33.073 2°56.231 11.3 19 11.9 101760 45
2010-10-27 12:52 51°33.077 2°56.268 12.4 19 11.8 101760 43
2010-10-27 12:53 51°33.083 2°56.307 11.2 16 11.8 101760 45
2010-10-27 12:54 51°33.085 2°56.353 9 13 11.8 101770 46
2010-10-27 12:55 51°33.062 2°56.456 10.7 14 11.8 101760 45
2010-10-27 12:56 51°33.007 2°56.659 16 7 11.8 101770 45
2010-10-27 12:57 51°32.898 2°56.922 12.8 354 11.7 101750 45
2010-10-27 12:58 51°32.741 2°57.166 14.5 356 11.7 101750 43
2010-10-27 12:59 51°32.57 2°57.396 14.1 352 11.8 101740 44
2010-10-27 13:00 51°32.372 2°57.528 15.2 281 11.8 101750 44
2010-10-27 13:01 51°32.16 2°57.565 16.3 336 11.8 101760 44
2010-10-27 13:02 51°31.955 2°57.567 16.7 278 11.9 101750 44
2010-10-27 13:03 51°31.752 2°57.532 13.7 332 11.8 101770 44
2010-10-27 13:04 51°31.554 2°57.483 15.5 285 11.7 101780 44
2010-10-27 13:05 51°31.357 2°57.416 15.5 334 11.5 101780 44
2010-10-27 13:06 51°31.163 2°57.351 14.7 281 11.5 101760 45
2010-10-27 13:07 51°30.969 2°57.296 14.7 336 11.5 101760 44
2010-10-27 13:08 51°30.777 2°57.244 15.3 284 11.5 101770 45
2010-10-27 13:09 51°30.584 2°57.194 16 332 11.5 101770 44
2010-10-27 13:10 51°30.397 2°57.116 15 333 11.5 101760 44
2010-10-27 13:11 51°30.212 2°57.032 16.2 283 11.4 101750 44
2010-10-27 13:12 51°30.024 2°56.945 15.1 333 11.4 101770 44
2010-10-27 13:13 51°29.836 2°56.864 14 -999 11.4 101770 44
2010-10-27 13:14 51°29.648 2°56.787 13.9 332 11.2 101780 45
2010-10-27 13:15 51°29.459 2°56.706 15.4 -999 11.1 101760 44
2010-10-27 13:16 51°29.266 2°56.62 14.1 281 11.1 101770 44
2010-10-27 13:17 51°29.076 2°56.545 13 331 11.1 101790 44
2010-10-27 13:18 51°28.893 2°56.476 15.1 331 11 101780 45
2010-10-27 13:19 51°28.707 2°56.399 15.7 330 11 101780 46
2010-10-27 13:20 51°28.522 2°56.327 14.9 329 11 101770 45
2010-10-27 13:21 51°28.333 2°56.251 12.8 280 10.9 101760 46
2010-10-27 13:22 51°28.152 2°56.179 14.2 331 10.8 101770 46
2010-10-27 13:23 51°27.97 2°56.101 15.6 279 10.7 101770 45
2010-10-27 13:24 51°27.787 2°56.019 15 332 10.7 101780 45
2010-10-27 13:25 51°27.603 2°55.943 14.1 283 10.6 101760 47
2010-10-27 13:26 51°27.42 2°55.863 14.8 281 10.7 101780 46
2010-10-27 13:27 51°27.235 2°55.781 16.3 334 10.7 101770 47
2010-10-27 13:28 51°27.052 2°55.701 13.9 282 10.6 101780 45
2010-10-27 13:29 51°26.871 2°55.625 13.6 331 10.7 101760 45
2010-10-27 13:30 51°26.69 2°55.553 19.1 333 10.7 101770 46
2010-10-27 13:31 51°26.508 2°55.478 16.4 284 10.7 101780 45
2010-10-27 13:32 51°26.325 2°55.404 14.1 332 10.7 101770 45
2010-10-27 13:33 51°26.143 2°55.331 16.2 283 10.7 101760 45
2010-10-27 13:34 51°25.958 2°55.255 15.4 331 10.7 101790 46
2010-10-27 13:35 51°25.772 2°55.181 15 281 10.7 101760 46
2010-10-27 13:36 51°25.585 2°55.112 15.6 331 10.7 101770 46
2010-10-27 13:37 51°25.4 2°55.038 15.5 282 10.8 101770 45
2010-10-27 13:38 51°25.214 2°54.965 15.6 332 10.7 101760 45
2010-10-27 13:39 51°25.029 2°54.893 14.4 282 10.8 101760 45
2010-10-27 13:40 51°24.852 2°54.837 15.9 330 10.8 101770 47
2010-10-27 13:41 51°24.671 2°54.769 17.1 283 10.8 101790 46
2010-10-27 13:42 51°24.492 2°54.703 14.7 330 10.8 101750 45
2010-10-27 13:43 51°24.309 2°54.633 15.6 284 10.8 101760 46
2010-10-27 13:44 51°24.13 2°54.563 17.5 330 10.8 101750 45
2010-10-27 13:45 51°23.95 2°54.493 15.6 280 10.8 101780 45
2010-10-27 13:46 51°23.771 2°54.424 16 330 10.8 101760 45
2010-10-27 13:47 51°23.591 2°54.353 15.7 280 10.8 101760 45
2010-10-27 13:48 51°23.408 2°54.282 14.4 331 10.8 101770 46
2010-10-27 13:49 51°23.225 2°54.211 15.9 -999 10.8 101770 45
2010-10-27 13:50 51°23.042 2°54.137 15 281 10.8 101760 45
2010-10-27 13:51 51°22.858 2°54.067 15.2 282 10.8 101750 46
2010-10-27 13:52 51°22.675 2°54 13.5 -999 10.8 101750 45
2010-10-27 13:53 51°22.491 2°53.931 13.8 282 10.8 101760 45
2010-10-27 13:54 51°22.309 2°53.863 14.6 282 10.8 101740 46
2010-10-27 13:55 51°22.124 2°53.796 15.8 -999 10.8 101770 46
2010-10-27 13:56 51°21.937 2°53.747 16.1 279 10.8 101760 45
2010-10-27 13:57 51°21.743 2°53.73 15.6 -999 10.8 101760 47
2010-10-27 13:58 51°21.549 2°53.711 13 283 10.8 101770 47
2010-10-27 13:59 51°21.355 2°53.687 14.3 -999 10.8 101760 45
2010-10-27 14:00 51°21.163 2°53.644 14.3 282 10.8 101770 46
2010-10-27 14:01 51°20.972 2°53.586 14.3 -999 10.8 101760 46
2010-10-27 14:02 51°20.78 2°53.525 15.1 279 10.8 101770 46
2010-10-27 14:03 51°20.589 2°53.474 14.7 -999 10.8 101770 46
2010-10-27 14:04 51°20.399 2°53.421 14.5 279 10.7 101770 46
2010-10-27 14:05 51°20.209 2°53.366 15.4 -999 10.7 101780 45
2010-10-27 14:06 51°20.022 2°53.316 16.5 285 10.8 101770 46
2010-10-27 14:07 51°19.837 2°53.261 13.5 -999 10.7 101770 44
2010-10-27 14:08 51°19.657 2°53.176 15.6 285 10.8 101780 45
2010-10-27 14:09 51°19.477 2°53.088 15.3 -999 10.8 101770 46
2010-10-27 14:10 51°19.294 2°53.001 16.3 282 10.7 101770 46
2010-10-27 14:11 51°19.109 2°52.925 15.7 -999 10.7 101780 46
2010-10-27 14:12 51°18.924 2°52.854 16.2 279 10.7 101780 45
2010-10-27 14:13 51°18.74 2°52.781 15.5 280 10.7 101770 45
2010-10-27 14:14 51°18.554 2°52.713 15.2 278 10.7 101800 46
2010-10-27 14:15 51°18.37 2°52.638 13.4 285 10.7 101770 44
2010-10-27 14:16 51°18.18 2°52.58 14.8 -999 10.7 101790 46
2010-10-27 14:17 51°17.988 2°52.544 15.9 -999 10.7 101760 45
2010-10-27 14:18 51°17.794 2°52.525 14.8 282 10.7 101770 45
2010-10-27 14:19 51°17.597 2°52.548 13.8 -999 10.7 101780 46
2010-10-27 14:20 51°17.402 2°52.584 15 279 10.7 101780 45
2010-10-27 14:21 51°17.208 2°52.669 14.5 -999 10.8 101790 46
2010-10-27 14:22 51°17.017 2°52.777 13.5 283 10.7 101780 46
2010-10-27 14:23 51°16.824 2°52.88 14.4 -999 10.7 101790 44
2010-10-27 14:24 51°16.629 2°52.984 12.6 282 10.7 101780 45
2010-10-27 14:25 51°16.441 2°53.121 11.8 -999 10.6 101790 46
2010-10-27 14:26 51°16.255 2°53.258 13.8 283 10.6 101790 47
2010-10-27 14:27 51°16.069 2°53.4 13.8 -999 10.6 101780 44
2010-10-27 14:28 51°15.879 2°53.515 13.2 282 10.6 101780 46
2010-10-27 14:29 51°15.693 2°53.663 14.2 283 10.6 101780 45
2010-10-27 14:30 51°15.526 2°53.876 12.5 286 10.6 101790 46
2010-10-27 14:31 51°15.363 2°54.098 14.5 279 10.6 101790 44
2010-10-27 14:32 51°15.198 2°54.305 11.8 -999 10.5 101780 46
2010-10-27 14:33 51°15.03 2°54.503 12.5 -999 10.5 101770 44
2010-10-27 14:34 51°14.867 2°54.712 12.2 278 10.5 101790 45
2010-10-27 14:35 51°14.694 2°54.893 12.8 -999 10.5 101790 46
2010-10-27 14:36 51°14.515 2°55.06 11.5 281 10.5 101790 45
2010-10-27 14:37 51°14.344 2°55.224 8.7 285 10.6 101800 45
2010-10-27 14:38 51°14.187 2°55.367 8.9 280 10.6 101800 44
2010-10-27 14:39 51°14.069 2°55.455 7.5 -999 10.6 101800 45
2010-10-27 14:40 51°13.974 2°55.523 4.8 285 10.6 101800 48
2010-10-27 14:41 51°13.878 2°55.593 8.4 -999 10.6 101800 46
2010-10-27 14:42 51°13.781 2°55.681 6 284 10.6 101790 47
2010-10-27 14:43 51°13.722 2°55.783 4.6 -999 10.5 101800 44
2010-10-27 14:44 51°13.684 2°55.878 -999 351 10.5 101810 43
2010-10-27 14:45 51°13.664 2°55.956 -999 -999 10.5 101810 45
2010-10-27 14:46 51°13.662 2°55.96 -999 14 10.5 101810 46